Hauptseite
METAR-TAF:

METAR-TAF

Flughäfen :

Militärflugplatz Nancy-Ochey

Nancy, Frankreich

Breite: 48-35N, Länge: 005-58E, Höhe: 336 m

Beobachtung

Neuester Wetterbericht von vor 33 Minuten, um 06:30 UTC
Windstille
Temperatur 5°C
Luftfeuchtigkeit 93%
Luftdruck 1026 hPa
Sichtweite 10 km oder mehr
keine Wolken unter 1500 m und keine Kumulonimbus oder Gewitterwolken

METAR: LFSO 070630Z AUTO 00000KT CAVOK 05/04 Q1026 NOSIG

Zeit: 09:03 (07:03 UTC)

Prognose

Neuester Wetterbericht von vor 1 Stunde und 24 Minuten, um 05:39 UTC
Gültige Prognose vom 07 um 05 UTC bis 08 um 03 UTC
Wind 2 kt aus unterschiedlichen Richtungen
Sichtweite 10 km oder mehr
keine Wolken unter 1500 m und keine Kumulonimbus oder Gewitterwolken
Zeitweise
vom 07 um 05 UTC bis 07 um 07 UTC
Sichtweite: 1500 m
feuchter Dunst

TAF: LFSO 070539Z 0705/0803 VRB02KT CAVOK TEMPO 0705/0707 1500 BR

Wetterbeobachtungen und Prognosen von mehr als 4000 Flughäfen (METAR und TAF Bericht).

Die verfügbaren Stationen werden durch gelbe und rote Markierungen auf der Karte dargestellt.

Führen Sie die Maus auf sie, um den Namen der Station zu sehen.

Darauf klicken, um die Beobachtung von Wetterbeobachtungen und Prognosen zu sehen.

Um die Karte zu ändern : klicken Sie auf den grünen Tasten mit einem schwarzen Kreuz Zum Vergrößern, auf den grünen Button mit einem Gedankenstrich zu verkleinern, oder auf die grünen Pfeile für benachbarte Karten.


METAR-TAF: